Terminal Aerodrome Forecast
Issued by NWS

Home | Current Version | Previous Version | Text Only | Print | Product List | Glossary On
Versions: 1 2 3 4 5 6 7 8 9 10 11 12 13 14 15
000
FTUS46 KSEW 161400 AAA
TAFOLM
TAF AMD
KOLM 161427Z 1614/1712 19007KT 6SM BR SCT020 SCT050 OVC090
      TEMPO 1614/1618 4SM -RA BR BKN020 OVC050
     FM161800 20012KT P6SM -RA BKN015 OVC030
     FM170200 20010KT 6SM -RA BR OVC028=

USA.gov is the U.S. government's official web portal to all federal, state and local government web resources and services.